Ringaskiddy, Ireland
Current Conditions -  °F | °C
As of 8:00 AM on Thursday 18 Dec 2014 (Local Time) from EICK Reporting Station
Light Rain Light Rain  
Wind Chill: 52°   Ceiling: 400
Heat Index: 52°   Visibility: 2.1mi
Dew Point: 52°   Wind: 24mph
Humidity: 100%   Direction: 230°SW
Pressure: 29.74"   Gusts: NA
Location:  51.83°N, 8.32°W
Report Text: EICK 180700Z 23021KT 3500 -RADZ OVC004 11/11 Q1007 NOSIG
Loading
Personal Weather Stations






























Interactive Weather Map New forecast layout! Learn more

10-Day Weather Forecast

Advertisements
Track Severe Weather on mobile